createdAt,value
2019-06-17T00:00:29.551Z,54.50
2019-06-17T00:01:29.928Z,54.80
2019-06-17T00:02:29.559Z,54.70
2019-06-17T00:03:30.261Z,57.20
2019-06-17T00:04:29.883Z,57.00
2019-06-17T00:05:29.835Z,58.20
2019-06-17T00:06:31.174Z,57.10
2019-06-17T00:07:29.735Z,58.30
2019-06-17T00:08:30.312Z,57.90
2019-06-17T00:09:30.104Z,58.80
2019-06-17T00:10:29.553Z,57.40
2019-06-17T00:11:29.453Z,59.70
2019-06-17T00:12:29.710Z,59.80
2019-06-17T00:13:30.123Z,57.60
2019-06-17T00:14:30.554Z,59.10
2019-06-17T00:15:30.849Z,59.60
2019-06-17T00:16:29.570Z,60.40
2019-06-17T00:17:29.611Z,58.80
2019-06-17T00:18:29.876Z,59.00
2019-06-17T00:19:29.656Z,59.50
2019-06-17T00:20:29.727Z,58.60
2019-06-17T00:21:29.969Z,60.40
2019-06-17T00:22:30.672Z,60.40
2019-06-17T00:23:30.264Z,59.90
2019-06-17T00:24:30.723Z,60.00
2019-06-17T00:25:30.049Z,61.30
2019-06-17T00:26:30.723Z,60.50
2019-06-17T00:27:29.473Z,61.00
2019-06-17T00:28:29.349Z,60.70
2019-06-17T00:29:30.594Z,61.70
2019-06-17T00:30:30.143Z,62.00
2019-06-17T00:31:29.469Z,59.50
2019-06-17T00:32:30.234Z,61.10
2019-06-17T00:33:29.591Z,58.60
2019-06-17T00:34:29.870Z,62.40
2019-06-17T00:35:29.915Z,61.90
2019-06-17T00:36:29.948Z,61.50
2019-06-17T00:37:29.549Z,60.80
2019-06-17T00:38:29.502Z,63.00
2019-06-17T00:39:30.410Z,64.10
2019-06-17T00:40:30.080Z,61.30
2019-06-17T00:41:30.552Z,61.60
2019-06-17T00:42:30.561Z,61.00
2019-06-17T00:43:29.818Z,62.00
2019-06-17T00:44:29.484Z,61.40
2019-06-17T00:45:29.951Z,64.70
2019-06-17T00:46:30.001Z,61.70
2019-06-17T00:47:30.940Z,61.60
2019-06-17T00:48:30.314Z,60.70
2019-06-17T00:49:30.066Z,64.20
2019-06-17T00:50:29.769Z,60.50
2019-06-17T00:51:30.629Z,62.10
2019-06-17T00:52:29.609Z,62.70
2019-06-17T00:53:30.900Z,61.80
2019-06-17T00:54:29.373Z,62.70
2019-06-17T00:55:29.388Z,62.30
2019-06-17T00:56:29.871Z,61.80
2019-06-17T00:57:30.556Z,62.10
2019-06-17T00:58:30.303Z,61.80
2019-06-17T00:59:30.612Z,62.20
2019-06-17T01:00:30.559Z,61.10
2019-06-17T01:01:35.165Z,62.70
2019-06-17T01:02:30.056Z,63.20
2019-06-17T01:03:30.307Z,61.10
2019-06-17T01:04:30.402Z,62.40
2019-06-17T01:05:30.170Z,63.60
2019-06-17T01:06:30.207Z,61.30
2019-06-17T01:07:30.098Z,64.20
2019-06-17T01:08:30.081Z,62.60
2019-06-17T01:09:29.709Z,61.70
2019-06-17T01:10:30.010Z,63.60
2019-06-17T01:11:30.296Z,64.30
2019-06-17T01:12:30.008Z,64.00
2019-06-17T01:13:30.428Z,64.70
2019-06-17T01:14:30.667Z,65.80
2019-06-17T01:15:29.752Z,62.80
2019-06-17T01:16:29.684Z,62.50
2019-06-17T01:17:30.270Z,65.90
2019-06-17T01:18:29.682Z,67.70
2019-06-17T01:19:30.056Z,65.70
2019-06-17T01:20:30.129Z,63.20
2019-06-17T01:21:29.707Z,66.10
2019-06-17T01:22:30.302Z,67.20
2019-06-17T01:23:29.454Z,64.50
2019-06-17T01:24:29.397Z,67.80
2019-06-17T01:25:30.162Z,65.90
2019-06-17T01:26:30.055Z,64.50
2019-06-17T01:27:30.869Z,64.80
2019-06-17T01:28:29.647Z,66.40
2019-06-17T01:29:30.190Z,67.80
2019-06-17T01:30:29.783Z,66.00
2019-06-17T01:31:29.870Z,66.00
2019-06-17T01:32:29.811Z,68.20
2019-06-17T01:33:29.650Z,69.50
2019-06-17T01:34:29.695Z,67.50
2019-06-17T01:35:30.408Z,68.80
2019-06-17T01:36:30.142Z,68.50
2019-06-17T01:37:30.942Z,71.10
2019-06-17T01:38:29.547Z,69.70
2019-06-17T01:39:30.269Z,72.90
2019-06-17T01:40:29.838Z,72.50
2019-06-17T01:41:30.301Z,71.10
2019-06-17T01:42:29.587Z,71.30
2019-06-17T01:43:30.280Z,70.90
2019-06-17T01:44:30.515Z,73.10
2019-06-17T01:45:30.243Z,72.20
2019-06-17T01:46:30.395Z,72.50
2019-06-17T01:47:30.313Z,74.00
2019-06-17T01:48:29.615Z,72.60
2019-06-17T01:49:30.292Z,72.10
2019-06-17T01:50:30.209Z,73.70
2019-06-17T01:51:30.300Z,73.00
2019-06-17T01:52:30.200Z,73.20
2019-06-17T01:53:29.709Z,71.80
2019-06-17T01:54:30.066Z,74.90
2019-06-17T01:55:29.229Z,72.50
2019-06-17T01:56:29.762Z,70.90
2019-06-17T01:57:29.685Z,73.40
2019-06-17T01:58:30.028Z,73.50
2019-06-17T01:59:30.365Z,74.40
2019-06-17T02:00:30.695Z,75.10
2019-06-17T02:01:29.929Z,74.30
2019-06-17T02:02:30.038Z,74.10
2019-06-17T02:03:30.097Z,74.80
2019-06-17T02:04:29.835Z,72.50
2019-06-17T02:05:30.399Z,73.00
2019-06-17T02:06:29.461Z,76.10
2019-06-17T02:07:30.248Z,77.20
2019-06-17T02:08:30.202Z,76.50
2019-06-17T02:09:29.715Z,76.60
2019-06-17T02:10:30.254Z,77.70
2019-06-17T02:11:30.267Z,75.20
2019-06-17T02:12:30.033Z,73.90
2019-06-17T02:13:30.113Z,74.60
2019-06-17T02:14:29.470Z,72.90
2019-06-17T02:15:29.847Z,73.90
2019-06-17T02:16:29.987Z,74.20
2019-06-17T02:17:29.980Z,71.60
2019-06-17T02:18:30.175Z,73.80
2019-06-17T02:19:29.438Z,76.70
2019-06-17T02:20:30.331Z,73.90
2019-06-17T02:21:30.229Z,74.20
2019-06-17T02:22:28.027Z,76.70
2019-06-17T02:23:30.028Z,75.10
2019-06-17T02:24:30.471Z,73.50
2019-06-17T02:25:30.618Z,76.30
2019-06-17T02:26:29.542Z,74.50
2019-06-17T02:27:30.575Z,74.70
2019-06-17T02:28:29.626Z,77.40
2019-06-17T02:29:30.150Z,76.20
2019-06-17T02:30:31.127Z,74.30
2019-06-17T02:31:31.360Z,74.40
2019-06-17T02:32:41.727Z,74.20
2019-06-17T02:33:30.763Z,76.80
2019-06-17T02:34:29.663Z,77.40
2019-06-17T02:35:29.534Z,73.10
2019-06-17T02:36:29.834Z,74.80
2019-06-17T02:37:29.809Z,78.30
2019-06-17T02:38:29.986Z,76.40
2019-06-17T02:39:29.690Z,75.80
2019-06-17T02:40:30.036Z,78.70
2019-06-17T02:41:30.055Z,78.10
2019-06-17T02:42:29.527Z,76.10
2019-06-17T02:43:29.456Z,77.90
2019-06-17T02:44:30.451Z,77.20
2019-06-17T02:45:29.921Z,75.50
2019-06-17T02:46:27.792Z,76.60
2019-06-17T02:47:29.802Z,78.70
2019-06-17T02:48:30.047Z,74.60
2019-06-17T02:49:30.642Z,72.60
2019-06-17T02:50:27.755Z,70.50
2019-06-17T02:51:27.753Z,74.00
2019-06-17T02:52:30.108Z,74.80
2019-06-17T02:53:27.718Z,72.60
2019-06-17T02:54:27.734Z,73.40
2019-06-17T02:55:27.716Z,73.10
2019-06-17T02:56:27.739Z,74.00
2019-06-17T02:57:30.029Z,69.40
2019-06-17T02:58:27.677Z,71.50
2019-06-17T02:59:30.255Z,75.90
2019-06-17T03:00:27.656Z,72.40
2019-06-17T03:01:27.645Z,70.30
2019-06-17T03:02:43.113Z,70.30
2019-06-17T03:03:27.633Z,74.40
2019-06-17T03:04:27.626Z,72.50
2019-06-17T03:05:27.604Z,71.40
2019-06-17T03:06:27.594Z,74.30
2019-06-17T03:07:27.585Z,73.60
2019-06-17T03:08:27.584Z,72.90
2019-06-17T03:09:30.110Z,74.10
2019-06-17T03:10:27.548Z,75.20
2019-06-17T03:11:27.557Z,74.10
2019-06-17T03:12:27.541Z,73.90
2019-06-17T03:13:27.516Z,70.10
2019-06-17T03:14:27.521Z,70.00
2019-06-17T03:15:27.520Z,71.20
2019-06-17T03:16:27.496Z,73.70
2019-06-17T03:17:27.536Z,72.30
2019-06-17T03:18:27.504Z,70.60
2019-06-17T03:19:27.511Z,71.60
2019-06-17T03:20:30.943Z,71.40
2019-06-17T03:21:27.453Z,71.30
2019-06-17T03:22:32.469Z,68.10
2019-06-17T03:23:27.424Z,73.90
2019-06-17T03:24:27.435Z,69.60
2019-06-17T03:25:27.414Z,69.90
2019-06-17T03:26:27.403Z,68.80
2019-06-17T03:27:27.388Z,66.70
2019-06-17T03:28:27.362Z,63.50
2019-06-17T03:29:27.380Z,66.40
2019-06-17T03:30:27.384Z,65.00
2019-06-17T03:31:27.406Z,63.80
2019-06-17T03:32:27.367Z,65.50
2019-06-17T03:33:32.066Z,63.80
2019-06-17T03:34:27.366Z,65.40
2019-06-17T03:35:27.349Z,64.80
2019-06-17T03:36:27.306Z,61.90
2019-06-17T03:37:27.295Z,63.00
2019-06-17T03:38:27.300Z,63.70
2019-06-17T03:39:27.280Z,60.50
2019-06-17T03:40:27.274Z,61.50
2019-06-17T03:41:27.259Z,61.80
2019-06-17T03:42:27.236Z,61.20
2019-06-17T03:43:27.278Z,60.10
2019-06-17T03:44:27.276Z,60.30
2019-06-17T03:45:27.214Z,59.40
2019-06-17T03:46:27.211Z,60.80
2019-06-17T03:47:27.206Z,59.70
2019-06-17T03:48:27.192Z,59.90
2019-06-17T03:49:27.193Z,60.00
2019-06-17T03:50:27.186Z,60.70
2019-06-17T03:51:27.205Z,61.50
2019-06-17T03:52:27.152Z,57.70
2019-06-17T03:53:27.162Z,61.00
2019-06-17T03:54:27.142Z,61.60
2019-06-17T03:55:27.128Z,60.70
2019-06-17T03:56:27.138Z,61.00
2019-06-17T03:57:27.153Z,63.30
2019-06-17T03:58:27.106Z,63.00
2019-06-17T03:59:27.090Z,63.10
2019-06-17T04:00:27.077Z,61.10
2019-06-17T04:01:27.089Z,62.30
2019-06-17T04:02:27.073Z,62.70
2019-06-17T04:04:27.047Z,63.50
2019-06-17T04:05:27.020Z,62.40
2019-06-17T04:06:27.011Z,63.10
2019-06-17T04:07:26.994Z,63.80
2019-06-17T04:08:27.033Z,67.40
2019-06-17T04:09:26.996Z,64.80
2019-06-17T04:10:26.958Z,64.60
2019-06-17T04:11:26.971Z,68.00
2019-06-17T04:12:27.004Z,65.60
2019-06-17T04:13:26.957Z,66.00
2019-06-17T04:14:26.948Z,65.60
2019-06-17T04:15:26.963Z,66.90
2019-06-17T04:16:26.917Z,66.00
2019-06-17T04:17:26.916Z,63.20
2019-06-17T04:18:26.892Z,63.90
2019-06-17T04:19:26.874Z,67.80
2019-06-17T04:20:26.876Z,64.80
2019-06-17T04:21:26.881Z,66.00
2019-06-17T04:22:26.866Z,63.90
2019-06-17T04:23:26.893Z,63.00
2019-06-17T04:24:26.838Z,63.70
2019-06-17T04:25:26.841Z,63.90
2019-06-17T04:26:26.813Z,63.80
2019-06-17T04:27:26.804Z,60.90
2019-06-17T04:28:26.784Z,62.80
2019-06-17T04:29:26.827Z,62.60
2019-06-17T04:30:26.762Z,65.80
2019-06-17T04:31:26.766Z,63.50
2019-06-17T04:32:26.759Z,62.50
2019-06-17T04:33:26.749Z,62.70
2019-06-17T04:34:26.735Z,64.60
2019-06-17T04:35:26.730Z,64.30
2019-06-17T04:36:26.724Z,65.30
2019-06-17T04:37:26.694Z,63.70
2019-06-17T04:38:26.698Z,65.50
2019-06-17T04:39:26.697Z,64.60
2019-06-17T04:40:26.696Z,66.00
2019-06-17T04:41:26.671Z,66.50
2019-06-17T04:42:26.639Z,65.70
2019-06-17T04:43:26.637Z,64.90
2019-06-17T04:44:26.626Z,65.60
2019-06-17T04:45:26.619Z,65.30
2019-06-17T04:46:29.186Z,66.60
2019-06-17T04:47:26.583Z,67.30
2019-06-17T04:48:26.577Z,66.20
2019-06-17T04:49:26.604Z,65.80
2019-06-17T04:50:26.570Z,68.50
2019-06-17T04:51:26.562Z,68.20
2019-06-17T04:52:26.546Z,66.70
2019-06-17T04:53:26.512Z,66.70
2019-06-17T04:54:26.537Z,66.10
2019-06-17T04:55:26.516Z,66.50
2019-06-17T04:56:26.502Z,69.30
2019-06-17T04:57:26.502Z,67.00
2019-06-17T04:58:26.480Z,67.30
2019-06-17T04:59:26.456Z,67.50
2019-06-17T05:00:26.461Z,65.70
2019-06-17T05:01:26.463Z,68.00
2019-06-17T05:02:26.427Z,69.50
2019-06-17T05:03:26.437Z,69.30
2019-06-17T05:04:26.454Z,70.90
2019-06-17T05:05:26.407Z,68.00
2019-06-17T05:06:26.396Z,69.10
2019-06-17T05:07:26.403Z,68.20
2019-06-17T05:08:26.382Z,70.20
2019-06-17T05:09:26.382Z,69.30
2019-06-17T05:10:26.366Z,71.40
2019-06-17T05:11:26.351Z,68.90
2019-06-17T05:12:26.352Z,69.80
2019-06-17T05:13:26.339Z,67.20
2019-06-17T05:14:26.329Z,71.20
2019-06-17T05:15:26.318Z,69.40
2019-06-17T05:16:26.279Z,71.30
2019-06-17T05:17:26.296Z,71.30
2019-06-17T05:18:26.283Z,71.70
2019-06-17T05:19:26.264Z,70.10
2019-06-17T05:20:26.291Z,69.00
2019-06-17T05:21:26.244Z,69.70
2019-06-17T05:22:26.217Z,70.60
2019-06-17T05:23:26.219Z,69.50
2019-06-17T05:24:26.233Z,70.70
2019-06-17T05:25:26.215Z,70.20
2019-06-17T05:26:26.182Z,69.80
2019-06-17T05:27:26.172Z,68.80
2019-06-17T05:28:26.184Z,70.50
2019-06-17T05:29:26.167Z,72.40
2019-06-17T05:30:26.150Z,71.00
2019-06-17T05:31:26.159Z,71.10
2019-06-17T05:32:26.136Z,71.80
2019-06-17T05:33:26.124Z,70.00
2019-06-17T05:34:31.880Z,70.00
2019-06-17T05:35:29.354Z,66.30
2019-06-17T05:36:26.082Z,65.30
2019-06-17T05:37:26.085Z,68.60
2019-06-17T05:38:26.055Z,68.80
2019-06-17T05:39:26.048Z,69.60
2019-06-17T05:40:26.052Z,71.00
2019-06-17T05:41:26.052Z,69.20
2019-06-17T05:42:26.010Z,68.00
2019-06-17T05:43:26.018Z,67.60
2019-06-17T05:44:26.018Z,70.00
2019-06-17T05:45:25.987Z,67.70
2019-06-17T05:46:25.985Z,70.10
2019-06-17T05:47:25.958Z,69.60
2019-06-17T05:48:25.968Z,69.10
2019-06-17T05:49:25.968Z,68.00
2019-06-17T05:50:25.956Z,68.60
2019-06-17T05:51:25.921Z,68.90
2019-06-17T05:52:25.936Z,70.60
2019-06-17T05:53:25.906Z,67.30
2019-06-17T05:54:26.905Z,70.00
2019-06-17T05:55:25.893Z,70.40
2019-06-17T05:56:25.870Z,68.40
2019-06-17T05:57:25.871Z,71.80
2019-06-17T05:58:25.856Z,71.00
2019-06-17T05:59:25.858Z,70.40
2019-06-17T06:00:25.828Z,69.50
2019-06-17T06:01:25.828Z,70.70
2019-06-17T06:02:25.819Z,72.00
2019-06-17T06:03:25.795Z,69.40
2019-06-17T06:04:25.802Z,71.30
2019-06-17T06:05:25.776Z,72.50
2019-06-17T06:06:25.786Z,67.60
2019-06-17T06:07:25.769Z,70.50
2019-06-17T06:08:25.741Z,68.20
2019-06-17T06:09:25.755Z,72.80
2019-06-17T06:10:25.738Z,68.90
2019-06-17T06:11:25.719Z,71.60
2019-06-17T06:12:25.712Z,69.30
2019-06-17T06:13:25.711Z,71.80
2019-06-17T06:14:25.686Z,71.00
2019-06-17T06:15:25.671Z,69.80
2019-06-17T06:16:25.667Z,69.00
2019-06-17T06:17:25.664Z,72.90
2019-06-17T06:18:25.646Z,69.70
2019-06-17T06:19:25.636Z,70.30
2019-06-17T06:20:25.611Z,71.20
2019-06-17T06:21:25.609Z,69.30
2019-06-17T06:22:25.608Z,68.70
2019-06-17T06:23:25.605Z,71.00
2019-06-17T06:24:25.583Z,69.30
2019-06-17T06:25:25.565Z,68.60
2019-06-17T06:26:25.556Z,69.70
2019-06-17T06:27:25.537Z,70.30
2019-06-17T06:28:25.585Z,68.90
2019-06-17T06:29:25.543Z,67.30
2019-06-17T06:30:25.533Z,69.60
2019-06-17T06:31:25.519Z,69.30
2019-06-17T06:32:25.519Z,68.00
2019-06-17T06:33:25.483Z,70.50
2019-06-17T06:34:25.477Z,70.30
2019-06-17T06:35:25.469Z,71.00
2019-06-17T06:36:25.449Z,73.10
2019-06-17T06:37:25.931Z,69.60
2019-06-17T06:38:25.448Z,73.10
2019-06-17T06:39:25.432Z,72.50
2019-06-17T06:40:25.421Z,69.90
2019-06-17T06:41:25.389Z,70.90
2019-06-17T06:42:25.387Z,71.20
2019-06-17T06:43:25.391Z,72.10
2019-06-17T06:44:25.384Z,71.80
2019-06-17T06:45:25.373Z,71.30
2019-06-17T06:46:25.341Z,70.20
2019-06-17T06:47:25.391Z,69.30
2019-06-17T06:48:25.367Z,72.30
2019-06-17T06:49:25.331Z,68.10
2019-06-17T06:50:25.311Z,68.10
2019-06-17T06:51:25.299Z,68.70
2019-06-17T06:52:25.300Z,68.30
2019-06-17T06:53:25.278Z,70.80
2019-06-17T06:54:25.271Z,69.90
2019-06-17T06:55:25.262Z,68.30
2019-06-17T06:56:25.259Z,67.60
2019-06-17T06:57:25.235Z,68.80
2019-06-17T06:58:25.209Z,67.90
2019-06-17T06:59:25.213Z,66.20
2019-06-17T07:00:25.210Z,65.80
2019-06-17T07:01:25.215Z,66.40
2019-06-17T07:02:25.195Z,67.20
2019-06-17T07:03:25.169Z,65.40
2019-06-17T07:04:25.280Z,67.50
2019-06-17T07:05:42.791Z,68.60
2019-06-17T07:06:25.180Z,68.10
2019-06-17T07:07:25.145Z,65.40
2019-06-17T07:08:25.133Z,66.70
2019-06-17T07:09:25.106Z,66.50
2019-06-17T07:10:25.091Z,68.50
2019-06-17T07:11:25.091Z,64.10
2019-06-17T07:12:25.091Z,65.80
2019-06-17T07:13:25.072Z,68.40
2019-06-17T07:14:25.072Z,65.30
2019-06-17T07:15:25.048Z,67.10
2019-06-17T07:16:25.041Z,67.10
2019-06-17T07:17:25.015Z,65.80
2019-06-17T07:18:25.008Z,65.40
2019-06-17T07:19:25.000Z,65.50
2019-06-17T07:20:24.995Z,66.10
2019-06-17T07:21:25.178Z,66.30
2019-06-17T07:22:24.973Z,65.00
2019-06-17T07:23:24.952Z,63.60
2019-06-17T07:24:24.966Z,65.60
2019-06-17T07:25:24.933Z,64.80
2019-06-17T07:26:24.930Z,64.50
2019-06-17T07:27:24.919Z,64.90
2019-06-17T07:28:24.890Z,64.10
2019-06-17T07:29:24.899Z,65.90
2019-06-17T07:30:24.877Z,65.00
2019-06-17T07:31:24.880Z,65.30
2019-06-17T07:32:24.874Z,65.60
2019-06-17T07:33:24.902Z,66.60
2019-06-17T07:34:24.859Z,64.30
2019-06-17T07:35:36.662Z,64.20
2019-06-17T07:36:24.818Z,65.10
2019-06-17T07:37:24.815Z,64.40
2019-06-17T07:38:29.706Z,62.60
2019-06-17T07:39:24.790Z,64.50
2019-06-17T07:40:24.775Z,64.40
2019-06-17T07:41:24.764Z,63.80
2019-06-17T07:42:24.770Z,62.70
2019-06-17T07:43:24.729Z,62.90
2019-06-17T07:44:24.739Z,62.40
2019-06-17T07:45:24.727Z,63.80
2019-06-17T07:46:24.866Z,64.20
2019-06-17T07:47:24.716Z,62.00
2019-06-17T07:48:24.675Z,63.80
2019-06-17T07:49:24.689Z,62.40
2019-06-17T07:50:24.667Z,61.70
2019-06-17T07:51:27.341Z,61.70
2019-06-17T07:52:24.634Z,61.90
2019-06-17T07:53:26.264Z,63.70
2019-06-17T07:54:24.627Z,61.30
2019-06-17T07:55:24.612Z,62.00
2019-06-17T07:56:24.607Z,61.50
2019-06-17T07:57:24.587Z,61.70
2019-06-17T07:58:24.572Z,61.50
2019-06-17T07:59:24.584Z,61.10
2019-06-17T08:00:24.559Z,61.00
2019-06-17T08:01:24.545Z,60.10
2019-06-17T08:02:26.037Z,61.60
2019-06-17T08:03:24.532Z,61.00
2019-06-17T08:04:24.515Z,59.80
2019-06-17T08:05:24.489Z,62.20
2019-06-17T08:06:26.230Z,62.20
2019-06-17T08:07:24.463Z,60.50
2019-06-17T08:08:24.478Z,62.10
2019-06-17T08:09:24.463Z,62.80
2019-06-17T08:10:24.490Z,61.40
2019-06-17T08:11:24.438Z,63.00
2019-06-17T08:12:24.433Z,63.10
2019-06-17T08:13:24.437Z,60.40
2019-06-17T08:14:24.390Z,63.10
2019-06-17T08:15:24.522Z,60.50
2019-06-17T08:16:24.388Z,60.00
2019-06-17T08:17:24.408Z,62.20
2019-06-17T08:18:24.397Z,61.30
2019-06-17T08:19:24.583Z,61.90
2019-06-17T08:20:24.346Z,65.50
2019-06-17T08:21:24.337Z,62.30
2019-06-17T08:22:24.318Z,63.90
2019-06-17T08:23:24.321Z,62.10
2019-06-17T08:24:24.287Z,62.00
2019-06-17T08:25:24.295Z,63.40
2019-06-17T08:26:24.280Z,63.10
2019-06-17T08:27:24.264Z,63.60
2019-06-17T08:28:24.249Z,63.70
2019-06-17T08:29:24.282Z,66.30
2019-06-17T08:30:24.240Z,63.30
2019-06-17T08:31:25.208Z,66.60
2019-06-17T08:32:24.214Z,64.90
2019-06-17T08:33:24.200Z,67.30
2019-06-17T08:34:24.203Z,66.60
2019-06-17T08:35:24.175Z,63.40
2019-06-17T08:36:24.173Z,63.80
2019-06-17T08:37:34.853Z,64.50
2019-06-17T08:38:24.148Z,64.30
2019-06-17T08:39:24.109Z,66.60
2019-06-17T08:40:24.127Z,66.80
2019-06-17T08:41:24.140Z,65.50
2019-06-17T08:42:24.098Z,65.80
2019-06-17T08:43:24.091Z,66.40
2019-06-17T08:44:24.072Z,66.60
2019-06-17T08:45:24.071Z,66.40
2019-06-17T08:46:24.051Z,63.50
2019-06-17T08:47:24.030Z,63.90
2019-06-17T08:48:24.013Z,61.10
2019-06-17T08:49:24.036Z,62.80
2019-06-17T08:50:24.013Z,61.90
2019-06-17T08:51:24.004Z,62.60
2019-06-17T08:52:23.978Z,60.70
2019-06-17T08:53:23.974Z,62.10
2019-06-17T08:54:36.854Z,61.90
2019-06-17T08:55:23.944Z,58.10
2019-06-17T08:56:23.980Z,58.20
2019-06-17T08:57:23.925Z,58.60
2019-06-17T08:58:23.907Z,60.50
2019-06-17T08:59:37.491Z,57.90
2019-06-17T09:00:23.901Z,58.10
2019-06-17T09:01:23.878Z,60.10
2019-06-17T09:02:23.862Z,58.90
2019-06-17T09:03:30.380Z,60.80
2019-06-17T09:04:23.844Z,60.70
2019-06-17T09:05:23.853Z,60.10
2019-06-17T09:06:30.065Z,58.70
2019-06-17T09:07:23.810Z,59.70
2019-06-17T09:08:23.815Z,58.50
2019-06-17T09:09:23.770Z,59.10
2019-06-17T09:10:23.774Z,58.90
2019-06-17T09:11:23.757Z,59.50
2019-06-17T09:12:38.647Z,57.30
2019-06-17T09:13:23.746Z,57.10
2019-06-17T09:14:23.785Z,56.90
2019-06-17T09:15:23.733Z,58.20
2019-06-17T09:16:23.718Z,59.40
2019-06-17T09:17:23.697Z,60.10
2019-06-17T09:18:23.683Z,60.20
2019-06-17T09:19:23.675Z,62.20
2019-06-17T09:20:23.721Z,61.50
2019-06-17T09:21:23.688Z,60.50
2019-06-17T09:22:23.628Z,62.80
2019-06-17T09:23:23.639Z,63.10
2019-06-17T09:24:23.612Z,59.70
2019-06-17T09:25:23.620Z,64.10
2019-06-17T09:26:23.632Z,63.60
2019-06-17T09:27:23.573Z,64.50
2019-06-17T09:28:35.112Z,68.00
2019-06-17T09:29:23.557Z,70.00
2019-06-17T09:30:23.533Z,70.80
2019-06-17T09:31:23.552Z,67.40
2019-06-17T09:32:23.527Z,71.90
2019-06-17T09:33:35.698Z,70.50
2019-06-17T09:34:23.521Z,71.20
2019-06-17T09:35:23.489Z,75.90
2019-06-17T09:36:23.523Z,76.30
2019-06-17T09:37:23.453Z,76.20
2019-06-17T09:38:23.453Z,77.70
2019-06-17T09:39:23.446Z,78.60
2019-06-17T09:40:23.437Z,79.70
2019-06-17T09:41:23.411Z,75.30
2019-06-17T09:42:35.558Z,76.50
2019-06-17T09:43:23.400Z,77.80
2019-06-17T09:44:23.388Z,77.80
2019-06-17T09:45:23.371Z,76.40
2019-06-17T09:46:23.402Z,75.60
2019-06-17T09:47:23.347Z,72.90
2019-06-17T09:48:23.330Z,76.50
2019-06-17T09:49:23.344Z,77.20
2019-06-17T09:50:23.311Z,76.90
2019-06-17T09:51:23.305Z,75.60
2019-06-17T09:52:23.284Z,74.50
2019-06-17T09:53:23.298Z,77.50
2019-06-17T09:54:23.260Z,80.30
2019-06-17T09:55:23.264Z,77.40
2019-06-17T09:56:23.246Z,76.80
2019-06-17T09:57:23.239Z,79.30
2019-06-17T09:58:23.266Z,77.60
2019-06-17T09:59:23.215Z,77.90
2019-06-17T10:00:23.200Z,76.70
2019-06-17T10:01:23.179Z,77.90
2019-06-17T10:02:23.182Z,74.10
2019-06-17T10:03:23.165Z,78.10
2019-06-17T10:04:23.149Z,79.10
2019-06-17T10:05:23.132Z,77.20
2019-06-17T10:06:23.131Z,76.40
2019-06-17T10:07:23.117Z,75.90
2019-06-17T10:08:23.142Z,77.80
2019-06-17T10:09:23.097Z,73.90
2019-06-17T10:10:23.096Z,75.60
2019-06-17T10:11:23.083Z,72.70
2019-06-17T10:12:24.828Z,73.70
2019-06-17T10:13:23.082Z,74.10
2019-06-17T10:14:23.033Z,73.60
2019-06-17T10:15:30.292Z,73.90
2019-06-17T10:16:23.002Z,75.90
2019-06-17T10:17:22.994Z,73.30
2019-06-17T10:18:22.984Z,75.10
2019-06-17T10:19:22.975Z,70.90
2019-06-17T10:20:22.958Z,73.30
2019-06-17T10:21:22.953Z,73.90
2019-06-17T10:22:22.943Z,72.90
2019-06-17T10:23:22.928Z,72.80
2019-06-17T10:24:22.895Z,71.90
2019-06-17T10:25:22.903Z,71.00
2019-06-17T10:26:22.883Z,71.70
2019-06-17T10:27:22.890Z,69.70
2019-06-17T10:28:22.884Z,72.60
2019-06-17T10:29:22.853Z,72.70
2019-06-17T10:30:22.845Z,74.40
2019-06-17T10:31:22.842Z,69.80
2019-06-17T10:32:22.860Z,70.70
2019-06-17T10:33:22.822Z,71.90
2019-06-17T10:34:22.795Z,69.40
2019-06-17T10:35:24.681Z,70.70
2019-06-17T10:36:22.778Z,71.10
2019-06-17T10:37:25.386Z,70.80
2019-06-17T10:38:22.750Z,69.40
2019-06-17T10:39:22.750Z,70.20
2019-06-17T10:40:22.721Z,73.70
2019-06-17T10:41:22.694Z,65.90
2019-06-17T10:42:22.697Z,65.80
2019-06-17T10:43:22.692Z,66.40
2019-06-17T10:44:22.679Z,64.20
2019-06-17T10:45:22.664Z,64.70
2019-06-17T10:46:22.671Z,64.90
2019-06-17T10:47:22.635Z,65.90
2019-06-17T10:48:22.626Z,62.90
2019-06-17T10:49:22.613Z,62.20
2019-06-17T10:50:22.619Z,62.50
2019-06-17T10:51:22.606Z,60.80
2019-06-17T10:52:22.598Z,64.80
2019-06-17T10:53:22.624Z,60.70
2019-06-17T10:54:22.569Z,62.70
2019-06-17T10:55:22.547Z,59.60
2019-06-17T10:56:22.555Z,61.30
2019-06-17T10:57:22.533Z,59.90
2019-06-17T10:58:22.519Z,61.90
2019-06-17T10:59:22.528Z,62.70
2019-06-17T11:00:22.507Z,62.30
2019-06-17T11:01:22.518Z,62.70
2019-06-17T11:02:29.724Z,59.30
2019-06-17T11:03:22.464Z,59.40
2019-06-17T11:04:22.462Z,60.30
2019-06-17T11:05:22.445Z,59.60
2019-06-17T11:06:24.505Z,58.10
2019-06-17T11:07:55.530Z,57.40
2019-06-17T11:08:22.402Z,58.10
2019-06-17T11:09:22.394Z,58.10
2019-06-17T11:10:22.405Z,57.00
2019-06-17T11:11:22.363Z,57.90
2019-06-17T11:12:24.296Z,59.20
2019-06-17T11:13:22.339Z,56.30
2019-06-17T11:14:22.341Z,56.80
2019-06-17T11:15:22.332Z,53.60
2019-06-17T11:16:22.312Z,54.30
2019-06-17T11:17:22.293Z,55.30
2019-06-17T11:18:22.286Z,57.60
2019-06-17T11:19:22.327Z,56.50
2019-06-17T11:20:22.272Z,53.50
2019-06-17T11:21:22.250Z,52.70
2019-06-17T11:22:22.247Z,53.10
2019-06-17T11:23:22.228Z,51.50
2019-06-17T11:24:22.228Z,51.80
2019-06-17T11:25:22.218Z,50.30
2019-06-17T11:26:22.210Z,51.80
2019-06-17T11:27:22.180Z,50.00
2019-06-17T11:28:26.862Z,51.30
2019-06-17T11:29:22.173Z,52.80
2019-06-17T11:30:22.175Z,55.60
2019-06-17T11:31:24.098Z,55.00
2019-06-17T11:32:22.137Z,56.80
2019-06-17T11:33:22.125Z,55.30
2019-06-17T11:34:22.116Z,56.00
2019-06-17T11:35:22.089Z,54.10
2019-06-17T11:36:22.089Z,54.80
2019-06-17T11:37:22.126Z,52.80
2019-06-17T11:38:22.635Z,54.30
2019-06-17T11:39:22.049Z,53.40
2019-06-17T11:40:22.058Z,51.70
2019-06-17T11:41:22.030Z,50.40
2019-06-17T11:42:22.070Z,48.40
2019-06-17T11:43:22.008Z,48.40
2019-06-17T11:44:22.247Z,45.10
2019-06-17T11:45:24.951Z,40.20
2019-06-17T11:46:22.074Z,41.90
2019-06-17T11:47:21.965Z,40.70
2019-06-17T11:48:21.999Z,39.90
2019-06-17T11:49:21.957Z,37.80
2019-06-17T11:50:21.948Z,37.50
2019-06-17T11:51:30.240Z,38.10
2019-06-17T11:52:21.925Z,36.60
2019-06-17T11:53:21.890Z,37.00
2019-06-17T11:54:21.904Z,37.60
2019-06-17T11:55:22.120Z,35.70
2019-06-17T11:56:21.918Z,37.20
2019-06-17T11:57:21.851Z,35.50
2019-06-17T11:58:21.858Z,32.40
2019-06-17T11:59:23.144Z,32.30
2019-06-17T12:00:22.323Z,31.00
2019-06-17T12:01:21.832Z,31.80
2019-06-17T12:02:22.081Z,31.10
2019-06-17T12:03:21.785Z,31.10
2019-06-17T12:04:21.804Z,29.30
2019-06-17T12:05:35.629Z,30.90
2019-06-17T12:06:21.770Z,28.30
2019-06-17T12:07:21.750Z,29.20
2019-06-17T12:08:38.275Z,27.20
2019-06-17T12:09:21.753Z,28.30
2019-06-17T12:10:21.743Z,27.60
2019-06-17T12:11:21.739Z,29.20
2019-06-17T12:12:21.722Z,28.40
2019-06-17T12:13:21.693Z,25.50
2019-06-17T12:14:21.702Z,24.90
2019-06-17T12:15:21.675Z,26.20
2019-06-17T12:16:22.162Z,26.60
2019-06-17T12:17:21.670Z,25.20
2019-06-17T12:18:21.698Z,25.80
2019-06-17T12:19:21.650Z,24.70
2019-06-17T12:20:21.633Z,24.90
2019-06-17T12:21:21.639Z,25.40
2019-06-17T12:22:21.608Z,24.40
2019-06-17T12:23:21.600Z,25.20
2019-06-17T12:24:22.486Z,23.90
2019-06-17T12:25:21.708Z,25.70
2019-06-17T12:26:21.580Z,26.20
2019-06-17T12:27:22.027Z,24.20
2019-06-17T12:28:21.583Z,25.00
2019-06-17T12:29:21.561Z,25.30
2019-06-17T12:30:21.917Z,24.30
2019-06-17T12:31:21.608Z,23.60
2019-06-17T12:32:21.534Z,24.60
2019-06-17T12:33:21.789Z,26.30
2019-06-17T12:34:21.528Z,23.80
2019-06-17T12:35:21.727Z,25.00
2019-06-17T12:36:21.506Z,24.90
2019-06-17T12:37:21.496Z,25.40
2019-06-17T12:38:21.481Z,24.30
2019-06-17T12:39:27.930Z,23.20
2019-06-17T12:40:21.936Z,25.10
2019-06-17T12:41:21.453Z,26.70
2019-06-17T12:42:21.447Z,24.50
2019-06-17T12:43:21.624Z,24.10
2019-06-17T12:44:21.479Z,24.30
2019-06-17T12:45:21.429Z,24.00
2019-06-17T12:46:21.526Z,25.70
2019-06-17T12:47:21.822Z,24.60
2019-06-17T12:48:21.407Z,25.60
2019-06-17T12:49:21.396Z,25.60
2019-06-17T12:50:21.833Z,26.00
2019-06-17T12:51:21.377Z,26.70
2019-06-17T12:52:28.434Z,25.40
2019-06-17T12:53:21.376Z,25.50